sensor_id;sensor_type;location;lat;lon;timestamp;P1;durP1;ratioP1;P2;durP2;ratioP2
10633;SDS011;5365;51.640;8.106;2024-03-25T00:00:46;1.45;;;0.90;;
10633;SDS011;5365;51.640;8.106;2024-03-25T00:03:47;3.65;;;1.10;;
10633;SDS011;5365;51.640;8.106;2024-03-25T00:06:47;3.70;;;0.98;;
10633;SDS011;5365;51.640;8.106;2024-03-25T00:09:48;2.00;;;0.80;;
10633;SDS011;5365;51.640;8.106;2024-03-25T00:12:49;2.35;;;2.15;;
10633;SDS011;5365;51.640;8.106;2024-03-25T00:15:53;3.50;;;1.15;;
10633;SDS011;5365;51.640;8.106;2024-03-25T00:18:53;1.05;;;0.40;;
10633;SDS011;5365;51.640;8.106;2024-03-25T00:21:54;1.90;;;0.52;;
10633;SDS011;5365;51.640;8.106;2024-03-25T00:24:55;3.58;;;0.85;;
10633;SDS011;5365;51.640;8.106;2024-03-25T00:27:55;1.00;;;0.70;;
10633;SDS011;5365;51.640;8.106;2024-03-25T00:30:58;3.08;;;0.47;;
10633;SDS011;5365;51.640;8.106;2024-03-25T00:33:58;0.55;;;0.55;;
10633;SDS011;5365;51.640;8.106;2024-03-25T00:36:59;2.88;;;1.42;;
10633;SDS011;5365;51.640;8.106;2024-03-25T00:40:00;6.78;;;0.57;;
10633;SDS011;5365;51.640;8.106;2024-03-25T00:43:01;4.57;;;1.98;;
10633;SDS011;5365;51.640;8.106;2024-03-25T00:46:01;5.80;;;1.48;;
10633;SDS011;5365;51.640;8.106;2024-03-25T00:49:02;6.53;;;1.05;;
10633;SDS011;5365;51.640;8.106;2024-03-25T00:52:03;2.70;;;1.15;;
10633;SDS011;5365;51.640;8.106;2024-03-25T00:55:04;4.70;;;3.40;;
10633;SDS011;5365;51.640;8.106;2024-03-25T00:58:05;2.47;;;1.10;;
10633;SDS011;5365;51.640;8.106;2024-03-25T01:01:05;2.72;;;0.90;;
10633;SDS011;5365;51.640;8.106;2024-03-25T01:04:06;4.97;;;1.50;;
10633;SDS011;5365;51.640;8.106;2024-03-25T01:07:08;6.57;;;2.20;;
10633;SDS011;5365;51.640;8.106;2024-03-25T01:10:09;2.63;;;1.50;;
10633;SDS011;5365;51.640;8.106;2024-03-25T01:13:09;4.35;;;2.25;;
10633;SDS011;5365;51.640;8.106;2024-03-25T01:16:10;4.90;;;0.88;;
10633;SDS011;5365;51.640;8.106;2024-03-25T01:19:11;1.73;;;1.15;;
10633;SDS011;5365;51.640;8.106;2024-03-25T01:22:12;2.60;;;1.30;;
10633;SDS011;5365;51.640;8.106;2024-03-25T01:25:12;4.60;;;1.80;;
10633;SDS011;5365;51.640;8.106;2024-03-25T01:28:13;10.90;;;1.27;;
10633;SDS011;5365;51.640;8.106;2024-03-25T01:31:14;0.40;;;0.38;;
10633;SDS011;5365;51.640;8.106;2024-03-25T01:34:14;2.83;;;1.02;;
10633;SDS011;5365;51.640;8.106;2024-03-25T01:37:15;1.77;;;1.20;;
10633;SDS011;5365;51.640;8.106;2024-03-25T01:40:16;3.85;;;1.65;;
10633;SDS011;5365;51.640;8.106;2024-03-25T01:43:17;5.28;;;1.10;;
10633;SDS011;5365;51.640;8.106;2024-03-25T01:46:17;2.72;;;1.40;;
10633;SDS011;5365;51.640;8.106;2024-03-25T01:49:19;2.38;;;1.10;;
10633;SDS011;5365;51.640;8.106;2024-03-25T01:52:20;2.03;;;1.05;;
10633;SDS011;5365;51.640;8.106;2024-03-25T01:55:24;2.00;;;0.85;;
10633;SDS011;5365;51.640;8.106;2024-03-25T01:58:26;2.00;;;0.47;;
10633;SDS011;5365;51.640;8.106;2024-03-25T02:01:27;1.17;;;0.73;;
10633;SDS011;5365;51.640;8.106;2024-03-25T02:04:28;1.92;;;0.88;;
10633;SDS011;5365;51.640;8.106;2024-03-25T02:07:29;2.00;;;1.08;;
10633;SDS011;5365;51.640;8.106;2024-03-25T02:10:30;3.30;;;1.50;;
10633;SDS011;5365;51.640;8.106;2024-03-25T02:13:31;0.77;;;0.30;;
10633;SDS011;5365;51.640;8.106;2024-03-25T02:16:31;1.42;;;0.50;;
10633;SDS011;5365;51.640;8.106;2024-03-25T02:19:32;0.90;;;0.68;;
10633;SDS011;5365;51.640;8.106;2024-03-25T02:22:34;24.13;;;4.35;;
10633;SDS011;5365;51.640;8.106;2024-03-25T02:25:36;4.75;;;1.15;;
10633;SDS011;5365;51.640;8.106;2024-03-25T02:28:38;1.13;;;0.60;;
10633;SDS011;5365;51.640;8.106;2024-03-25T02:31:39;3.78;;;2.17;;
10633;SDS011;5365;51.640;8.106;2024-03-25T02:34:43;0.40;;;0.40;;
10633;SDS011;5365;51.640;8.106;2024-03-25T02:40:45;3.15;;;0.08;;
10633;SDS011;5365;51.640;8.106;2024-03-25T02:43:46;4.13;;;3.10;;
10633;SDS011;5365;51.640;8.106;2024-03-25T02:46:47;3.53;;;2.22;;
10633;SDS011;5365;51.640;8.106;2024-03-25T02:49:48;1.77;;;1.38;;
10633;SDS011;5365;51.640;8.106;2024-03-25T02:52:49;3.75;;;1.63;;
10633;SDS011;5365;51.640;8.106;2024-03-25T02:55:49;1.48;;;1.08;;
10633;SDS011;5365;51.640;8.106;2024-03-25T02:58:50;2.63;;;1.95;;
10633;SDS011;5365;51.640;8.106;2024-03-25T03:01:51;1.75;;;1.17;;
10633;SDS011;5365;51.640;8.106;2024-03-25T03:04:51;1.95;;;1.23;;
10633;SDS011;5365;51.640;8.106;2024-03-25T03:07:52;0.90;;;0.43;;
10633;SDS011;5365;51.640;8.106;2024-03-25T03:10:52;3.25;;;1.67;;
10633;SDS011;5365;51.640;8.106;2024-03-25T03:13:53;5.47;;;2.00;;
10633;SDS011;5365;51.640;8.106;2024-03-25T03:16:54;1.70;;;0.85;;
10633;SDS011;5365;51.640;8.106;2024-03-25T03:19:58;1.05;;;0.47;;
10633;SDS011;5365;51.640;8.106;2024-03-25T03:22:58;2.80;;;1.80;;
10633;SDS011;5365;51.640;8.106;2024-03-25T03:25:59;0.57;;;0.52;;
10633;SDS011;5365;51.640;8.106;2024-03-25T03:29:01;6.63;;;0.93;;
10633;SDS011;5365;51.640;8.106;2024-03-25T03:32:01;5.43;;;2.13;;
10633;SDS011;5365;51.640;8.106;2024-03-25T03:35:02;4.05;;;1.13;;
10633;SDS011;5365;51.640;8.106;2024-03-25T03:38:03;1.25;;;1.05;;
10633;SDS011;5365;51.640;8.106;2024-03-25T03:41:03;11.18;;;2.40;;
10633;SDS011;5365;51.640;8.106;2024-03-25T03:44:04;1.63;;;1.17;;
10633;SDS011;5365;51.640;8.106;2024-03-25T03:47:05;7.82;;;2.75;;
10633;SDS011;5365;51.640;8.106;2024-03-25T03:50:06;1.20;;;0.85;;
10633;SDS011;5365;51.640;8.106;2024-03-25T03:53:06;11.38;;;2.15;;
10633;SDS011;5365;51.640;8.106;2024-03-25T03:56:07;5.35;;;3.03;;
10633;SDS011;5365;51.640;8.106;2024-03-25T03:59:08;6.53;;;2.65;;
10633;SDS011;5365;51.640;8.106;2024-03-25T04:02:09;5.03;;;2.13;;
10633;SDS011;5365;51.640;8.106;2024-03-25T04:05:10;2.20;;;1.38;;
10633;SDS011;5365;51.640;8.106;2024-03-25T04:08:10;7.22;;;2.90;;
10633;SDS011;5365;51.640;8.106;2024-03-25T04:11:11;2.75;;;1.38;;
10633;SDS011;5365;51.640;8.106;2024-03-25T04:14:12;10.88;;;2.05;;
10633;SDS011;5365;51.640;8.106;2024-03-25T04:17:14;10.02;;;2.17;;
10633;SDS011;5365;51.640;8.106;2024-03-25T04:20:16;3.03;;;1.08;;
10633;SDS011;5365;51.640;8.106;2024-03-25T04:23:16;3.00;;;1.38;;
10633;SDS011;5365;51.640;8.106;2024-03-25T04:26:17;4.07;;;1.63;;
10633;SDS011;5365;51.640;8.106;2024-03-25T04:29:18;1.88;;;1.10;;
10633;SDS011;5365;51.640;8.106;2024-03-25T04:32:19;0.85;;;0.63;;
10633;SDS011;5365;51.640;8.106;2024-03-25T04:35:20;2.97;;;1.52;;
10633;SDS011;5365;51.640;8.106;2024-03-25T04:38:20;4.90;;;2.97;;
10633;SDS011;5365;51.640;8.106;2024-03-25T04:41:21;10.18;;;2.00;;
10633;SDS011;5365;51.640;8.106;2024-03-25T04:44:22;2.22;;;2.03;;
10633;SDS011;5365;51.640;8.106;2024-03-25T04:47:22;7.13;;;3.70;;
10633;SDS011;5365;51.640;8.106;2024-03-25T04:50:23;2.92;;;1.20;;
10633;SDS011;5365;51.640;8.106;2024-03-25T04:53:24;9.95;;;3.88;;
10633;SDS011;5365;51.640;8.106;2024-03-25T04:56:24;10.95;;;4.85;;
10633;SDS011;5365;51.640;8.106;2024-03-25T04:59:26;5.18;;;2.05;;
10633;SDS011;5365;51.640;8.106;2024-03-25T05:02:27;4.18;;;2.30;;
10633;SDS011;5365;51.640;8.106;2024-03-25T05:05:27;6.63;;;3.22;;
10633;SDS011;5365;51.640;8.106;2024-03-25T05:08:28;4.10;;;2.85;;
10633;SDS011;5365;51.640;8.106;2024-03-25T05:11:29;3.88;;;2.95;;
10633;SDS011;5365;51.640;8.106;2024-03-25T05:14:29;13.45;;;4.47;;
10633;SDS011;5365;51.640;8.106;2024-03-25T05:17:30;7.03;;;2.72;;
10633;SDS011;5365;51.640;8.106;2024-03-25T05:20:31;2.47;;;2.10;;
10633;SDS011;5365;51.640;8.106;2024-03-25T05:23:31;11.95;;;3.55;;
10633;SDS011;5365;51.640;8.106;2024-03-25T05:26:32;3.63;;;2.40;;
10633;SDS011;5365;51.640;8.106;2024-03-25T05:29:33;7.97;;;3.03;;
10633;SDS011;5365;51.640;8.106;2024-03-25T05:32:34;13.18;;;5.50;;
10633;SDS011;5365;51.640;8.106;2024-03-25T05:35:35;10.65;;;5.63;;
10633;SDS011;5365;51.640;8.106;2024-03-25T05:38:37;18.08;;;6.07;;
10633;SDS011;5365;51.640;8.106;2024-03-25T05:41:38;15.60;;;4.07;;
10633;SDS011;5365;51.640;8.106;2024-03-25T05:44:39;11.93;;;4.90;;
10633;SDS011;5365;51.640;8.106;2024-03-25T05:47:39;3.35;;;1.88;;
10633;SDS011;5365;51.640;8.106;2024-03-25T05:50:40;5.32;;;2.22;;
10633;SDS011;5365;51.640;8.106;2024-03-25T05:53:41;7.38;;;3.63;;
10633;SDS011;5365;51.640;8.106;2024-03-25T05:56:42;7.88;;;3.25;;
10633;SDS011;5365;51.640;8.106;2024-03-25T05:59:43;5.07;;;2.85;;
10633;SDS011;5365;51.640;8.106;2024-03-25T06:02:43;6.80;;;3.47;;
10633;SDS011;5365;51.640;8.106;2024-03-25T06:05:44;9.38;;;3.58;;
10633;SDS011;5365;51.640;8.106;2024-03-25T06:08:45;5.38;;;3.15;;
10633;SDS011;5365;51.640;8.106;2024-03-25T06:11:46;12.85;;;5.07;;
10633;SDS011;5365;51.640;8.106;2024-03-25T06:14:46;4.35;;;3.40;;
10633;SDS011;5365;51.640;8.106;2024-03-25T06:17:47;7.20;;;3.35;;
10633;SDS011;5365;51.640;8.106;2024-03-25T06:20:48;17.65;;;6.03;;
10633;SDS011;5365;51.640;8.106;2024-03-25T06:23:48;9.75;;;3.58;;
10633;SDS011;5365;51.640;8.106;2024-03-25T06:26:49;11.13;;;3.92;;
10633;SDS011;5365;51.640;8.106;2024-03-25T06:29:52;5.43;;;2.83;;
10633;SDS011;5365;51.640;8.106;2024-03-25T06:33:13;19.45;;;4.72;;
10633;SDS011;5365;51.640;8.106;2024-03-25T06:36:43;8.25;;;3.63;;
10633;SDS011;5365;51.640;8.106;2024-03-25T06:39:44;10.38;;;4.50;;
10633;SDS011;5365;51.640;8.106;2024-03-25T06:42:44;3.88;;;2.25;;
10633;SDS011;5365;51.640;8.106;2024-03-25T06:45:45;6.72;;;4.00;;
10633;SDS011;5365;51.640;8.106;2024-03-25T06:48:46;2.83;;;1.90;;
10633;SDS011;5365;51.640;8.106;2024-03-25T06:51:46;6.47;;;2.83;;
10633;SDS011;5365;51.640;8.106;2024-03-25T06:54:47;8.20;;;3.75;;
10633;SDS011;5365;51.640;8.106;2024-03-25T06:57:48;3.70;;;2.33;;
10633;SDS011;5365;51.640;8.106;2024-03-25T07:00:49;9.32;;;4.22;;
10633;SDS011;5365;51.640;8.106;2024-03-25T07:03:50;11.25;;;3.97;;
10633;SDS011;5365;51.640;8.106;2024-03-25T07:06:52;3.92;;;2.58;;
10633;SDS011;5365;51.640;8.106;2024-03-25T07:09:53;4.45;;;2.88;;
10633;SDS011;5365;51.640;8.106;2024-03-25T07:12:54;7.53;;;2.92;;
10633;SDS011;5365;51.640;8.106;2024-03-25T07:15:55;7.15;;;2.72;;
10633;SDS011;5365;51.640;8.106;2024-03-25T07:18:56;4.85;;;2.17;;
10633;SDS011;5365;51.640;8.106;2024-03-25T07:21:56;5.32;;;2.38;;
10633;SDS011;5365;51.640;8.106;2024-03-25T07:24:57;5.28;;;2.50;;
10633;SDS011;5365;51.640;8.106;2024-03-25T07:27:58;4.15;;;2.83;;
10633;SDS011;5365;51.640;8.106;2024-03-25T07:30:58;8.45;;;2.10;;
10633;SDS011;5365;51.640;8.106;2024-03-25T07:33:59;7.32;;;2.88;;
10633;SDS011;5365;51.640;8.106;2024-03-25T07:37:00;4.00;;;2.38;;
10633;SDS011;5365;51.640;8.106;2024-03-25T07:40:00;3.80;;;2.53;;
10633;SDS011;5365;51.640;8.106;2024-03-25T07:43:01;3.90;;;2.05;;
10633;SDS011;5365;51.640;8.106;2024-03-25T07:46:02;3.97;;;2.33;;
10633;SDS011;5365;51.640;8.106;2024-03-25T07:49:02;8.00;;;2.67;;
10633;SDS011;5365;51.640;8.106;2024-03-25T07:52:03;11.35;;;1.27;;
10633;SDS011;5365;51.640;8.106;2024-03-25T07:55:04;6.65;;;1.65;;
10633;SDS011;5365;51.640;8.106;2024-03-25T07:58:05;5.63;;;1.45;;
10633;SDS011;5365;51.640;8.106;2024-03-25T08:01:05;4.75;;;0.88;;
10633;SDS011;5365;51.640;8.106;2024-03-25T08:04:06;5.60;;;1.02;;
10633;SDS011;5365;51.640;8.106;2024-03-25T08:07:08;1.60;;;0.50;;
10633;SDS011;5365;51.640;8.106;2024-03-25T08:10:08;3.13;;;1.02;;
10633;SDS011;5365;51.640;8.106;2024-03-25T08:13:09;3.00;;;1.67;;
10633;SDS011;5365;51.640;8.106;2024-03-25T08:16:10;1.35;;;1.15;;
10633;SDS011;5365;51.640;8.106;2024-03-25T08:19:11;3.40;;;1.65;;
10633;SDS011;5365;51.640;8.106;2024-03-25T08:22:12;3.40;;;2.13;;
10633;SDS011;5365;51.640;8.106;2024-03-25T08:25:12;4.22;;;1.58;;
10633;SDS011;5365;51.640;8.106;2024-03-25T08:28:13;11.50;;;2.65;;
10633;SDS011;5365;51.640;8.106;2024-03-25T08:31:14;4.88;;;1.95;;
10633;SDS011;5365;51.640;8.106;2024-03-25T08:34:15;4.75;;;1.75;;
10633;SDS011;5365;51.640;8.106;2024-03-25T08:37:15;7.43;;;2.70;;
10633;SDS011;5365;51.640;8.106;2024-03-25T08:40:16;4.78;;;2.45;;
10633;SDS011;5365;51.640;8.106;2024-03-25T08:43:17;4.15;;;1.42;;
10633;SDS011;5365;51.640;8.106;2024-03-25T08:46:18;8.35;;;2.72;;
10633;SDS011;5365;51.640;8.106;2024-03-25T08:49:18;10.38;;;2.17;;
10633;SDS011;5365;51.640;8.106;2024-03-25T08:52:19;6.72;;;2.58;;
10633;SDS011;5365;51.640;8.106;2024-03-25T08:55:20;7.72;;;2.70;;
10633;SDS011;5365;51.640;8.106;2024-03-25T08:58:20;8.70;;;1.92;;
10633;SDS011;5365;51.640;8.106;2024-03-25T09:01:21;3.05;;;1.60;;
10633;SDS011;5365;51.640;8.106;2024-03-25T09:04:22;11.18;;;1.27;;
10633;SDS011;5365;51.640;8.106;2024-03-25T09:07:23;2.00;;;1.00;;
10633;SDS011;5365;51.640;8.106;2024-03-25T09:10:24;3.80;;;1.38;;
10633;SDS011;5365;51.640;8.106;2024-03-25T09:13:43;5.43;;;1.55;;
10633;SDS011;5365;51.640;8.106;2024-03-25T09:16:44;7.68;;;0.85;;
10633;SDS011;5365;51.640;8.106;2024-03-25T09:19:45;2.03;;;1.45;;
10633;SDS011;5365;51.640;8.106;2024-03-25T09:22:46;4.93;;;1.85;;
10633;SDS011;5365;51.640;8.106;2024-03-25T09:25:51;1.63;;;0.82;;
10633;SDS011;5365;51.640;8.106;2024-03-25T09:28:51;4.55;;;2.72;;
10633;SDS011;5365;51.640;8.106;2024-03-25T09:31:52;3.60;;;1.20;;
10633;SDS011;5365;51.640;8.106;2024-03-25T09:34:53;1.33;;;0.52;;
10633;SDS011;5365;51.640;8.106;2024-03-25T09:37:54;1.02;;;0.45;;
10633;SDS011;5365;51.640;8.106;2024-03-25T09:40:54;7.38;;;1.30;;
10633;SDS011;5365;51.640;8.106;2024-03-25T09:43:55;1.88;;;0.60;;
10633;SDS011;5365;51.640;8.106;2024-03-25T09:46:57;1.48;;;0.93;;
10633;SDS011;5365;51.640;8.106;2024-03-25T09:49:59;3.75;;;0.50;;
10633;SDS011;5365;51.640;8.106;2024-03-25T09:52:59;1.33;;;0.90;;
10633;SDS011;5365;51.640;8.106;2024-03-25T09:56:00;1.33;;;0.45;;
10633;SDS011;5365;51.640;8.106;2024-03-25T09:59:01;1.20;;;0.75;;
10633;SDS011;5365;51.640;8.106;2024-03-25T10:02:02;2.33;;;0.57;;
10633;SDS011;5365;51.640;8.106;2024-03-25T10:05:04;1.15;;;0.50;;
10633;SDS011;5365;51.640;8.106;2024-03-25T10:08:06;1.65;;;0.30;;
10633;SDS011;5365;51.640;8.106;2024-03-25T10:11:07;0.55;;;0.28;;
10633;SDS011;5365;51.640;8.106;2024-03-25T10:14:07;1.85;;;0.50;;
10633;SDS011;5365;51.640;8.106;2024-03-25T10:17:09;3.67;;;1.63;;
10633;SDS011;5365;51.640;8.106;2024-03-25T10:20:13;0.57;;;0.32;;
10633;SDS011;5365;51.640;8.106;2024-03-25T10:23:14;2.83;;;0.63;;
10633;SDS011;5365;51.640;8.106;2024-03-25T10:26:28;1.10;;;0.40;;
10633;SDS011;5365;51.640;8.106;2024-03-25T10:29:29;0.63;;;0.10;;
10633;SDS011;5365;51.640;8.106;2024-03-25T10:32:31;1.23;;;0.70;;
10633;SDS011;5365;51.640;8.106;2024-03-25T10:35:33;0.55;;;0.20;;
10633;SDS011;5365;51.640;8.106;2024-03-25T10:38:33;0.75;;;0.40;;
10633;SDS011;5365;51.640;8.106;2024-03-25T10:41:35;3.00;;;1.00;;
10633;SDS011;5365;51.640;8.106;2024-03-25T10:44:36;3.47;;;0.57;;
10633;SDS011;5365;51.640;8.106;2024-03-25T10:47:36;1.67;;;0.32;;
10633;SDS011;5365;51.640;8.106;2024-03-25T10:50:38;2.47;;;0.85;;
10633;SDS011;5365;51.640;8.106;2024-03-25T10:53:40;1.75;;;0.45;;
10633;SDS011;5365;51.640;8.106;2024-03-25T10:56:41;1.42;;;0.43;;
10633;SDS011;5365;51.640;8.106;2024-03-25T10:59:43;4.30;;;0.43;;
10633;SDS011;5365;51.640;8.106;2024-03-25T11:02:44;3.15;;;0.43;;
10633;SDS011;5365;51.640;8.106;2024-03-25T11:05:45;0.75;;;0.50;;
10633;SDS011;5365;51.640;8.106;2024-03-25T11:08:55;1.75;;;0.30;;
10633;SDS011;5365;51.640;8.106;2024-03-25T11:11:55;6.03;;;1.00;;
10633;SDS011;5365;51.640;8.106;2024-03-25T11:14:56;0.77;;;0.45;;
10633;SDS011;5365;51.640;8.106;2024-03-25T11:17:58;4.25;;;0.73;;
10633;SDS011;5365;51.640;8.106;2024-03-25T11:21:06;4.03;;;0.65;;
10633;SDS011;5365;51.640;8.106;2024-03-25T11:24:08;1.33;;;0.40;;
10633;SDS011;5365;51.640;8.106;2024-03-25T11:27:09;0.43;;;0.30;;
10633;SDS011;5365;51.640;8.106;2024-03-25T11:30:10;1.75;;;0.47;;
10633;SDS011;5365;51.640;8.106;2024-03-25T11:33:11;0.63;;;0.10;;
10633;SDS011;5365;51.640;8.106;2024-03-25T11:36:12;1.67;;;0.43;;
10633;SDS011;5365;51.640;8.106;2024-03-25T11:39:13;2.05;;;0.57;;
10633;SDS011;5365;51.640;8.106;2024-03-25T11:42:13;2.33;;;0.80;;
10633;SDS011;5365;51.640;8.106;2024-03-25T11:45:18;2.20;;;0.73;;
10633;SDS011;5365;51.640;8.106;2024-03-25T11:48:19;3.03;;;0.85;;
10633;SDS011;5365;51.640;8.106;2024-03-25T11:51:20;1.83;;;0.30;;
10633;SDS011;5365;51.640;8.106;2024-03-25T11:54:20;1.08;;;0.73;;
10633;SDS011;5365;51.640;8.106;2024-03-25T11:57:22;2.40;;;1.05;;
10633;SDS011;5365;51.640;8.106;2024-03-25T12:00:23;1.40;;;0.30;;
10633;SDS011;5365;51.640;8.106;2024-03-25T12:03:24;5.07;;;0.50;;
10633;SDS011;5365;51.640;8.106;2024-03-25T12:06:27;0.30;;;0.20;;
10633;SDS011;5365;51.640;8.106;2024-03-25T12:09:27;1.38;;;0.30;;
10633;SDS011;5365;51.640;8.106;2024-03-25T12:12:48;2.45;;;0.38;;
10633;SDS011;5365;51.640;8.106;2024-03-25T12:15:54;3.60;;;0.73;;
10633;SDS011;5365;51.640;8.106;2024-03-25T12:18:55;2.28;;;0.47;;
10633;SDS011;5365;51.640;8.106;2024-03-25T12:21:59;0.63;;;0.47;;
10633;SDS011;5365;51.640;8.106;2024-03-25T12:25:00;2.70;;;0.73;;
10633;SDS011;5365;51.640;8.106;2024-03-25T12:28:01;1.40;;;0.40;;
10633;SDS011;5365;51.640;8.106;2024-03-25T12:31:01;1.48;;;0.25;;
10633;SDS011;5365;51.640;8.106;2024-03-25T12:34:09;0.35;;;0.22;;
10633;SDS011;5365;51.640;8.106;2024-03-25T12:37:09;0.43;;;0.17;;
10633;SDS011;5365;51.640;8.106;2024-03-25T12:40:25;2.60;;;0.40;;
10633;SDS011;5365;51.640;8.106;2024-03-25T12:43:26;4.63;;;0.60;;
10633;SDS011;5365;51.640;8.106;2024-03-25T12:46:27;1.10;;;0.22;;
10633;SDS011;5365;51.640;8.106;2024-03-25T12:49:29;0.95;;;0.55;;
10633;SDS011;5365;51.640;8.106;2024-03-25T12:52:30;1.75;;;0.30;;
10633;SDS011;5365;51.640;8.106;2024-03-25T12:55:31;1.25;;;0.35;;
10633;SDS011;5365;51.640;8.106;2024-03-25T12:58:32;3.15;;;0.30;;
10633;SDS011;5365;51.640;8.106;2024-03-25T13:01:32;4.03;;;0.90;;
10633;SDS011;5365;51.640;8.106;2024-03-25T13:04:33;0.70;;;0.50;;
10633;SDS011;5365;51.640;8.106;2024-03-25T13:07:34;4.35;;;0.70;;
10633;SDS011;5365;51.640;8.106;2024-03-25T13:10:34;1.35;;;0.40;;
10633;SDS011;5365;51.640;8.106;2024-03-25T13:13:35;2.67;;;0.47;;
10633;SDS011;5365;51.640;8.106;2024-03-25T13:16:36;1.58;;;0.50;;
10633;SDS011;5365;51.640;8.106;2024-03-25T13:19:37;1.73;;;0.95;;
10633;SDS011;5365;51.640;8.106;2024-03-25T13:22:37;4.22;;;0.52;;
10633;SDS011;5365;51.640;8.106;2024-03-25T13:25:38;0.93;;;0.25;;
10633;SDS011;5365;51.640;8.106;2024-03-25T13:28:39;1.80;;;0.73;;
10633;SDS011;5365;51.640;8.106;2024-03-25T13:31:40;3.08;;;0.60;;
10633;SDS011;5365;51.640;8.106;2024-03-25T13:34:41;3.45;;;0.70;;
10633;SDS011;5365;51.640;8.106;2024-03-25T13:37:42;0.93;;;0.40;;
10633;SDS011;5365;51.640;8.106;2024-03-25T13:40:42;2.80;;;0.40;;
10633;SDS011;5365;51.640;8.106;2024-03-25T13:43:43;2.05;;;0.77;;
10633;SDS011;5365;51.640;8.106;2024-03-25T13:46:44;1.30;;;0.45;;
10633;SDS011;5365;51.640;8.106;2024-03-25T13:49:45;1.23;;;0.30;;
10633;SDS011;5365;51.640;8.106;2024-03-25T13:52:45;3.55;;;0.57;;
10633;SDS011;5365;51.640;8.106;2024-03-25T13:55:46;0.88;;;0.22;;
10633;SDS011;5365;51.640;8.106;2024-03-25T13:58:47;1.42;;;0.28;;
10633;SDS011;5365;51.640;8.106;2024-03-25T14:01:48;3.95;;;0.40;;
10633;SDS011;5365;51.640;8.106;2024-03-25T14:04:48;0.88;;;0.35;;
10633;SDS011;5365;51.640;8.106;2024-03-25T14:07:49;2.22;;;0.40;;
10633;SDS011;5365;51.640;8.106;2024-03-25T14:10:59;4.18;;;0.55;;
10633;SDS011;5365;51.640;8.106;2024-03-25T14:14:00;1.48;;;0.40;;
10633;SDS011;5365;51.640;8.106;2024-03-25T14:17:01;2.53;;;0.57;;
10633;SDS011;5365;51.640;8.106;2024-03-25T14:20:02;2.55;;;0.63;;
10633;SDS011;5365;51.640;8.106;2024-03-25T14:23:06;2.05;;;0.70;;
10633;SDS011;5365;51.640;8.106;2024-03-25T14:26:07;2.50;;;0.57;;
10633;SDS011;5365;51.640;8.106;2024-03-25T14:29:08;3.05;;;0.40;;
10633;SDS011;5365;51.640;8.106;2024-03-25T14:32:08;2.83;;;0.70;;
10633;SDS011;5365;51.640;8.106;2024-03-25T14:35:09;0.90;;;0.30;;
10633;SDS011;5365;51.640;8.106;2024-03-25T14:38:10;2.72;;;0.50;;
10633;SDS011;5365;51.640;8.106;2024-03-25T14:41:11;1.05;;;0.30;;
10633;SDS011;5365;51.640;8.106;2024-03-25T14:44:12;2.17;;;0.75;;
10633;SDS011;5365;51.640;8.106;2024-03-25T14:47:12;2.08;;;0.70;;
10633;SDS011;5365;51.640;8.106;2024-03-25T14:50:13;1.30;;;0.70;;
10633;SDS011;5365;51.640;8.106;2024-03-25T14:53:14;1.08;;;0.20;;
10633;SDS011;5365;51.640;8.106;2024-03-25T14:56:14;1.90;;;0.30;;
10633;SDS011;5365;51.640;8.106;2024-03-25T14:59:15;1.40;;;0.40;;
10633;SDS011;5365;51.640;8.106;2024-03-25T15:02:16;1.35;;;0.70;;
10633;SDS011;5365;51.640;8.106;2024-03-25T15:05:16;1.35;;;0.28;;
10633;SDS011;5365;51.640;8.106;2024-03-25T15:08:18;3.05;;;0.50;;
10633;SDS011;5365;51.640;8.106;2024-03-25T15:11:19;4.07;;;0.98;;
10633;SDS011;5365;51.640;8.106;2024-03-25T15:14:20;0.93;;;0.25;;
10633;SDS011;5365;51.640;8.106;2024-03-25T15:17:20;1.35;;;0.40;;
10633;SDS011;5365;51.640;8.106;2024-03-25T15:20:21;2.55;;;0.35;;
10633;SDS011;5365;51.640;8.106;2024-03-25T15:23:22;2.90;;;0.55;;
10633;SDS011;5365;51.640;8.106;2024-03-25T15:26:22;2.33;;;0.63;;
10633;SDS011;5365;51.640;8.106;2024-03-25T15:29:23;0.82;;;0.35;;
10633;SDS011;5365;51.640;8.106;2024-03-25T15:32:24;2.38;;;0.32;;
10633;SDS011;5365;51.640;8.106;2024-03-25T15:35:25;1.15;;;0.40;;
10633;SDS011;5365;51.640;8.106;2024-03-25T15:38:25;2.05;;;0.40;;
10633;SDS011;5365;51.640;8.106;2024-03-25T15:41:26;1.73;;;0.45;;
10633;SDS011;5365;51.640;8.106;2024-03-25T15:44:27;0.60;;;0.38;;
10633;SDS011;5365;51.640;8.106;2024-03-25T15:47:28;2.05;;;0.45;;
10633;SDS011;5365;51.640;8.106;2024-03-25T15:50:28;2.22;;;0.52;;
10633;SDS011;5365;51.640;8.106;2024-03-25T15:53:29;2.10;;;0.38;;
10633;SDS011;5365;51.640;8.106;2024-03-25T15:56:30;2.70;;;0.57;;
10633;SDS011;5365;51.640;8.106;2024-03-25T15:59:30;0.93;;;0.17;;
10633;SDS011;5365;51.640;8.106;2024-03-25T16:02:31;0.40;;;0.15;;
10633;SDS011;5365;51.640;8.106;2024-03-25T16:05:32;4.15;;;0.50;;
10633;SDS011;5365;51.640;8.106;2024-03-25T16:08:33;0.63;;;0.17;;
10633;SDS011;5365;51.640;8.106;2024-03-25T16:11:33;1.17;;;0.40;;
10633;SDS011;5365;51.640;8.106;2024-03-25T16:14:34;1.50;;;0.28;;
10633;SDS011;5365;51.640;8.106;2024-03-25T16:17:35;2.40;;;0.75;;
10633;SDS011;5365;51.640;8.106;2024-03-25T16:20:35;2.20;;;1.10;;
10633;SDS011;5365;51.640;8.106;2024-03-25T16:23:36;0.45;;;0.10;;
10633;SDS011;5365;51.640;8.106;2024-03-25T16:26:40;1.95;;;0.20;;
10633;SDS011;5365;51.640;8.106;2024-03-25T16:29:40;1.83;;;0.28;;
10633;SDS011;5365;51.640;8.106;2024-03-25T16:32:41;1.95;;;0.52;;
10633;SDS011;5365;51.640;8.106;2024-03-25T16:35:45;0.00;;;0.00;;
10633;SDS011;5365;51.640;8.106;2024-03-25T16:38:45;1.92;;;0.32;;
10633;SDS011;5365;51.640;8.106;2024-03-25T16:41:46;1.05;;;0.50;;
10633;SDS011;5365;51.640;8.106;2024-03-25T16:44:47;0.17;;;0.10;;
10633;SDS011;5365;51.640;8.106;2024-03-25T16:47:47;1.25;;;0.25;;
10633;SDS011;5365;51.640;8.106;2024-03-25T16:50:49;0.95;;;0.30;;
10633;SDS011;5365;51.640;8.106;2024-03-25T16:53:50;0.00;;;0.00;;
10633;SDS011;5365;51.640;8.106;2024-03-25T16:56:51;0.82;;;0.40;;
10633;SDS011;5365;51.640;8.106;2024-03-25T16:59:52;0.75;;;0.40;;
10633;SDS011;5365;51.640;8.106;2024-03-25T17:02:53;0.63;;;0.10;;
10633;SDS011;5365;51.640;8.106;2024-03-25T17:05:53;0.30;;;0.20;;
10633;SDS011;5365;51.640;8.106;2024-03-25T17:08:54;0.30;;;0.15;;
10633;SDS011;5365;51.640;8.106;2024-03-25T17:11:54;0.05;;;0.03;;
10633;SDS011;5365;51.640;8.106;2024-03-25T17:14:55;1.58;;;0.52;;
10633;SDS011;5365;51.640;8.106;2024-03-25T17:17:56;0.60;;;0.22;;
10633;SDS011;5365;51.640;8.106;2024-03-25T17:20:59;0.88;;;0.30;;
10633;SDS011;5365;51.640;8.106;2024-03-25T17:24:00;0.08;;;0.00;;
10633;SDS011;5365;51.640;8.106;2024-03-25T17:27:01;2.60;;;0.30;;
10633;SDS011;5365;51.640;8.106;2024-03-25T17:30:04;2.17;;;0.10;;
10633;SDS011;5365;51.640;8.106;2024-03-25T17:33:04;0.10;;;0.00;;
10633;SDS011;5365;51.640;8.106;2024-03-25T17:36:05;0.10;;;0.03;;
10633;SDS011;5365;51.640;8.106;2024-03-25T17:39:06;0.28;;;0.25;;
10633;SDS011;5365;51.640;8.106;2024-03-25T17:42:07;0.40;;;0.20;;
10633;SDS011;5365;51.640;8.106;2024-03-25T17:45:08;0.98;;;0.73;;
10633;SDS011;5365;51.640;8.106;2024-03-25T17:48:08;10.85;;;0.47;;
10633;SDS011;5365;51.640;8.106;2024-03-25T17:51:09;0.30;;;0.10;;
10633;SDS011;5365;51.640;8.106;2024-03-25T17:54:10;3.42;;;0.50;;
10633;SDS011;5365;51.640;8.106;2024-03-25T17:57:11;1.20;;;0.30;;
10633;SDS011;5365;51.640;8.106;2024-03-25T18:00:12;2.50;;;0.40;;
10633;SDS011;5365;51.640;8.106;2024-03-25T18:03:13;2.97;;;0.57;;
10633;SDS011;5365;51.640;8.106;2024-03-25T18:06:15;0.30;;;0.20;;
10633;SDS011;5365;51.640;8.106;2024-03-25T18:09:15;0.47;;;0.20;;
10633;SDS011;5365;51.640;8.106;2024-03-25T18:12:16;0.57;;;0.40;;
10633;SDS011;5365;51.640;8.106;2024-03-25T18:15:17;0.55;;;0.40;;
10633;SDS011;5365;51.640;8.106;2024-03-25T18:18:18;0.13;;;0.08;;
10633;SDS011;5365;51.640;8.106;2024-03-25T18:21:19;0.30;;;0.15;;
10633;SDS011;5365;51.640;8.106;2024-03-25T18:24:20;0.38;;;0.20;;
10633;SDS011;5365;51.640;8.106;2024-03-25T18:27:20;0.98;;;0.45;;
10633;SDS011;5365;51.640;8.106;2024-03-25T18:30:21;1.15;;;0.28;;